Dati Storici

Data ora Umidita' aria (%) Temperatura aria (°C) Rad globale (W/m²) Gonioanemometro (°) Tacoanemometro (m/s) Pioggia (mm)
07-11-2012 01:30 77.3 % 8.573 1.555 1.271 2.186 0
07-11-2012 01:20 77.6 % 8.48 1.734 45.767 1.385 0
07-11-2012 01:10 77.9 % 8.52 1.567 30.198 2.875 0
07-11-2012 01:00 77.7 % 8.635 1.606 15.125 1.236 0
07-11-2012 00:50 77.6 % 8.711 1.555 35.394 2.368 0
07-11-2012 00:40 77.4 % 8.858 1.632 21.28 1.143 0
07-11-2012 00:30 77.3 % 9.069 1.516 8.766 2.102 0
07-11-2012 00:20 77.3 % 9.156 1.504 25.308 3.095 0
07-11-2012 00:10 77.2 % 9.274 1.644 56.741 1.966 0
07-11-2012 00:00 77.8 % 9.294 1.709 353.184 3.129 0
06-11-2012 23:50 77.8 % 9.288 2.016 61.545 2.222 0
06-11-2012 23:40 77.4 % 9.371 1.747 42.836 3.488 0
06-11-2012 23:30 76.9 % 9.473 1.939 43.139 2.215 0
06-11-2012 23:20 77.2 % 9.587 2.055 28.8 2.894 0
06-11-2012 23:10 77.4 % 9.802 2.209 14.384 3.839 0
06-11-2012 23:00 77.1 % 9.903 0.798 7.059 4.053 0
06-11-2012 22:50 75.5 % 10.203 1.17 29.218 4.605 0
06-11-2012 22:40 74.4 % 10.893 1.939 20.741 2.318 0
06-11-2012 22:30 74.7 % 11.224 2.016 36.486 1.348 0
06-11-2012 22:20 75.1 % 11.173 3.375 47.812 1.958 0

I dati sono presentati in modo automatico a scopo informativo. In seguito a verifica i dati possono subire modifiche o essere invalidati e non riportati negli archivi definitivi.